Time;durP1;ratioP1;P1;durP2;ratioP2;P2;SDS_P1;SDS_P2;PMS_P1;PMS_P2;Temp;Humidity;BMP_temperature;BMP_pressure;BME280_temperature;BME280_humidity;BME280_pressure;Samples;Min_cycle;Max_cycle;Signal;HPM_P1;HPM_P2
2024/01/16 00:02:09;;;;;;;1.70;0.90;;;;;;;-1.19;81.01;98401.34;112846;242;38316;-69
2024/01/16 00:04:42;;;;;;;1.90;1.30;;;;;;;-1.16;81.03;98410.34;112891;242;40115;-70
2024/01/16 00:07:16;;;;;;;2.10;1.20;;;;;;;-1.13;80.77;98412.85;112848;242;39060;-70
2024/01/16 00:09:52;;;;;;;3.70;1.20;;;;;;;-1.13;80.55;98416.79;112866;242;38754;-70
2024/01/16 00:12:26;;;;;;;3.80;1.30;;;;;;;-1.15;80.35;98417.86;112839;242;39809;-69
2024/01/16 00:14:59;;;;;;;2.40;1.30;;;;;;;-1.23;80.14;98421.63;112852;242;38375;-69
2024/01/16 00:17:33;;;;;;;2.70;1.40;;;;;;;-1.26;80.45;98428.54;112867;242;39501;-69
2024/01/16 00:20:09;;;;;;;1.90;1.10;;;;;;;-1.29;80.28;98432.37;112871;242;38322;-69
2024/01/16 00:22:43;;;;;;;2.10;1.10;;;;;;;-1.37;80.13;98440.57;112896;242;38957;-69
2024/01/16 00:25:19;;;;;;;2.70;1.30;;;;;;;-1.39;80.32;98447.43;112855;242;38634;-70
2024/01/16 00:27:53;;;;;;;2.60;1.20;;;;;;;-1.39;80.36;98454.78;112874;242;38315;-70
2024/01/16 00:30:27;;;;;;;3.20;1.50;;;;;;;-1.33;80.64;98452.45;112818;242;40044;-70
2024/01/16 00:33:02;;;;;;;3.10;1.20;;;;;;;-1.32;80.29;98460.30;112861;242;38836;-69
2024/01/16 00:35:36;;;;;;;3.10;1.60;;;;;;;-1.31;80.45;98459.25;112843;242;38372;-69
2024/01/16 00:38:10;;;;;;;2.90;1.80;;;;;;;-1.33;80.38;98466.48;112693;242;175900;-69
2024/01/16 00:40:44;;;;;;;2.70;1.30;;;;;;;-1.35;80.12;98471.48;112833;242;39809;-69
2024/01/16 00:43:18;;;;;;;2.50;1.40;;;;;;;-1.44;79.76;98473.20;112870;242;38408;-69
2024/01/16 00:45:52;;;;;;;3.80;1.60;;;;;;;-1.49;80.11;98473.80;112865;242;38305;-69
2024/01/16 00:48:25;;;;;;;2.70;1.20;;;;;;;-1.48;80.24;98480.46;112864;242;38559;-69
2024/01/16 00:50:59;;;;;;;3.90;1.30;;;;;;;-1.46;79.67;98485.56;112884;242;38419;-69
2024/01/16 00:53:33;;;;;;;2.10;1.20;;;;;;;-1.47;79.72;98488.30;112815;242;38351;-69
2024/01/16 00:56:07;;;;;;;2.80;1.60;;;;;;;-1.49;79.68;98495.52;112821;242;38665;-70
2024/01/16 00:58:41;;;;;;;3.10;1.40;;;;;;;-1.52;79.69;98506.20;112868;242;38382;-69
2024/01/16 01:01:15;;;;;;;3.10;1.90;;;;;;;-1.56;79.25;98504.55;112846;242;38826;-70
2024/01/16 01:03:48;;;;;;;3.20;2.00;;;;;;;-1.62;79.31;98503.98;112847;242;40214;-69
2024/01/16 01:06:23;;;;;;;6.00;2.00;;;;;;;-1.72;78.48;98514.27;112821;242;38912;-69
2024/01/16 01:08:57;;;;;;;2.70;1.70;;;;;;;-1.77;78.40;98517.61;112840;242;38327;-69
2024/01/16 01:11:31;;;;;;;2.80;1.50;;;;;;;-1.83;78.34;98514.80;112857;242;38560;-69
2024/01/16 01:14:04;;;;;;;3.60;1.60;;;;;;;-1.91;78.11;98518.88;112852;242;38740;-69
2024/01/16 01:16:39;;;;;;;3.60;1.50;;;;;;;-1.98;78.44;98518.14;112750;242;38913;-69
2024/01/16 01:19:13;;;;;;;2.90;1.10;;;;;;;-2.06;77.90;98524.43;112852;242;38246;-71
2024/01/16 01:21:47;;;;;;;3.70;1.50;;;;;;;-2.17;78.54;98527.16;112851;242;38682;-71
2024/01/16 01:24:20;;;;;;;2.50;1.30;;;;;;;-2.26;78.62;98528.67;112852;242;38473;-69
2024/01/16 01:26:54;;;;;;;2.80;1.60;;;;;;;-2.34;78.49;98530.00;112872;242;38464;-69
2024/01/16 01:29:28;;;;;;;2.20;1.10;;;;;;;-2.41;78.51;98540.03;112878;242;38338;-69
2024/01/16 01:32:02;;;;;;;3.20;1.40;;;;;;;-2.46;78.67;98544.70;112828;242;38847;-69
2024/01/16 01:34:35;;;;;;;2.30;1.50;;;;;;;-2.49;78.68;98543.91;112849;242;38568;-69
2024/01/16 01:37:09;;;;;;;2.80;1.60;;;;;;;-2.51;78.54;98551.77;112887;242;39115;-69
2024/01/16 01:39:43;;;;;;;3.10;2.10;;;;;;;-2.53;78.91;98559.98;112867;242;39893;-69
2024/01/16 01:42:18;;;;;;;2.00;1.70;;;;;;;-2.53;79.16;98562.90;112859;242;39495;-69
2024/01/16 01:44:52;;;;;;;2.50;1.80;;;;;;;-2.55;79.20;98567.55;112878;242;38550;-70
2024/01/16 01:47:25;;;;;;;1.60;1.10;;;;;;;-2.58;79.36;98574.08;112825;242;38219;-70
2024/01/16 01:49:59;;;;;;;2.10;1.30;;;;;;;-2.65;79.40;98576.90;112844;242;39215;-71
2024/01/16 01:52:35;;;;;;;2.50;1.40;;;;;;;-2.69;79.80;98581.57;112853;242;38876;-69
2024/01/16 01:55:11;;;;;;;1.90;1.30;;;;;;;-2.73;79.77;98592.89;112874;242;38291;-69
2024/01/16 01:57:45;;;;;;;1.70;1.10;;;;;;;-2.74;79.88;98599.05;112863;242;38585;-69
2024/01/16 02:00:19;;;;;;;1.80;0.90;;;;;;;-2.73;80.03;98605.33;112836;242;38058;-69
2024/01/16 02:02:53;;;;;;;2.00;1.00;;;;;;;-2.68;80.04;98606.29;112852;242;39826;-71
2024/01/16 02:05:26;;;;;;;1.60;0.90;;;;;;;-2.65;79.74;98614.80;112860;242;38310;-71
2024/01/16 02:08:00;;;;;;;2.80;1.30;;;;;;;-2.68;79.38;98614.99;112878;242;39789;-72
2024/01/16 02:10:34;;;;;;;2.80;1.40;;;;;;;-2.74;79.33;98617.46;112832;242;38292;-71
2024/01/16 02:13:08;;;;;;;2.80;1.20;;;;;;;-2.81;78.66;98627.45;112858;242;39600;-69
2024/01/16 02:15:42;;;;;;;1.90;1.10;;;;;;;-2.89;78.83;98632.31;112837;242;38929;-69
2024/01/16 02:18:16;;;;;;;2.20;1.20;;;;;;;-2.98;78.51;98635.50;112880;242;38438;-69
2024/01/16 02:20:50;;;;;;;1.90;1.00;;;;;;;-3.08;78.04;98647.23;112852;242;39838;-69
2024/01/16 02:23:27;;;;;;;1.80;1.10;;;;;;;-3.20;78.12;98647.52;112860;242;39779;-70
2024/01/16 02:26:01;;;;;;;1.50;0.80;;;;;;;-3.27;78.19;98654.23;112858;242;39012;-70
2024/01/16 02:28:35;;;;;;;1.60;0.90;;;;;;;-3.27;78.51;98657.81;112893;242;38389;-70
2024/01/16 02:31:09;;;;;;;1.30;0.80;;;;;;;-3.24;78.22;98664.10;112860;242;38845;-70
2024/01/16 02:33:43;;;;;;;1.20;0.90;;;;;;;-3.22;78.26;98670.72;112946;242;38621;-70
2024/01/16 02:36:17;;;;;;;2.20;0.80;;;;;;;-3.19;78.27;98673.42;112878;242;39831;-70
2024/01/16 02:38:51;;;;;;;2.30;0.90;;;;;;;-3.18;78.28;98675.98;112843;242;38910;-69
2024/01/16 02:41:25;;;;;;;2.10;1.40;;;;;;;-3.16;78.36;98680.21;112893;242;38558;-69
2024/01/16 02:43:59;;;;;;;5.50;1.60;;;;;;;-3.16;78.21;98688.90;112855;242;38701;-70
2024/01/16 02:46:34;;;;;;;2.40;1.20;;;;;;;-3.20;77.70;98697.30;112830;242;39798;-70
2024/01/16 02:49:08;;;;;;;1.80;1.00;;;;;;;-3.26;77.69;98701.29;112780;242;38855;-70
2024/01/16 02:51:42;;;;;;;2.50;1.00;;;;;;;-3.30;77.62;98702.52;112874;242;40006;-70
2024/01/16 02:54:16;;;;;;;2.10;1.10;;;;;;;-3.31;76.92;98708.32;112741;242;175498;-69
2024/01/16 02:56:50;;;;;;;1.30;0.80;;;;;;;-3.33;76.56;98709.36;112848;242;38262;-69
2024/01/16 02:59:24;;;;;;;2.00;1.30;;;;;;;-3.33;77.10;98710.90;112886;242;38915;-68
2024/01/16 03:01:58;;;;;;;2.70;1.20;;;;;;;-3.31;76.99;98714.63;112864;242;38858;-68
2024/01/16 03:04:31;;;;;;;2.90;1.40;;;;;;;-3.33;76.87;98722.51;112872;242;38879;-70
2024/01/16 03:07:05;;;;;;;2.10;1.30;;;;;;;-3.38;76.99;98722.70;112858;242;39262;-71
2024/01/16 03:09:39;;;;;;;1.90;1.20;;;;;;;-3.45;76.66;98733.00;112914;242;39460;-70
2024/01/16 03:12:13;;;;;;;1.80;1.10;;;;;;;-3.50;77.06;98739.67;112881;242;38393;-70
2024/01/16 03:14:47;;;;;;;2.40;1.40;;;;;;;-3.58;77.09;98733.27;112872;242;38767;-69
2024/01/16 03:17:21;;;;;;;3.70;1.50;;;;;;;-3.63;77.00;98737.22;112738;242;39988;-70
2024/01/16 03:19:55;;;;;;;3.60;1.20;;;;;;;-3.75;76.93;98741.05;112854;242;38820;-70
2024/01/16 03:22:28;;;;;;;3.30;1.10;;;;;;;-3.82;76.99;98748.26;112899;242;38834;-70
2024/01/16 03:25:03;;;;;;;5.10;1.00;;;;;;;-3.88;77.02;98753.07;112842;242;38871;-70
2024/01/16 03:27:37;;;;;;;1.90;1.30;;;;;;;-3.93;76.96;98753.95;112858;242;39873;-70
2024/01/16 03:30:12;;;;;;;2.20;1.20;;;;;;;-3.97;77.00;98757.71;112872;242;38418;-70
2024/01/16 03:32:46;;;;;;;2.60;1.10;;;;;;;-3.99;76.87;98758.06;112842;242;38528;-69
2024/01/16 03:35:20;;;;;;;2.00;1.00;;;;;;;-4.02;76.87;98765.41;112882;242;38481;-69
2024/01/16 03:37:53;;;;;;;2.20;1.30;;;;;;;-4.09;76.70;98766.46;112853;242;38071;-69
2024/01/16 03:40:27;;;;;;;1.60;0.80;;;;;;;-4.16;77.30;98771.27;112875;242;38378;-69
2024/01/16 03:43:01;;;;;;;3.20;1.60;;;;;;;-4.22;77.18;98772.31;112912;242;38588;-70
2024/01/16 03:45:35;;;;;;;1.90;1.10;;;;;;;-4.29;77.18;98784.26;112835;242;38808;-70
2024/01/16 03:48:09;;;;;;;1.10;0.90;;;;;;;-4.36;77.11;98783.27;112846;242;38323;-68
2024/01/16 03:50:45;;;;;;;2.00;1.00;;;;;;;-4.40;77.22;98788.21;112834;242;38553;-68
2024/01/16 03:53:18;;;;;;;1.70;1.00;;;;;;;-4.42;77.12;98797.42;112841;242;38890;-69
2024/01/16 03:55:52;;;;;;;1.80;1.20;;;;;;;-4.41;77.16;98800.81;112855;242;38290;-69
2024/01/16 03:58:26;;;;;;;1.80;1.10;;;;;;;-4.42;77.10;98807.64;112840;242;38428;-70
2024/01/16 04:00:59;;;;;;;1.40;1.00;;;;;;;-4.44;77.28;98818.52;112840;242;38281;-70
2024/01/16 04:03:34;;;;;;;3.00;1.70;;;;;;;-4.48;77.14;98823.81;112860;242;38555;-68
2024/01/16 04:06:16;;;;;;;3.20;2.00;;;;;;;-4.54;76.82;98828.75;112907;242;38355;-68
2024/01/16 04:08:50;;;;;;;4.70;2.20;;;;;;;-4.61;76.58;98830.14;112858;242;40674;-68
2024/01/16 04:11:26;;;;;;;2.10;1.30;;;;;;;-4.71;76.38;98839.34;112855;242;39191;-68
2024/01/16 04:14:16;;;;;;;3.30;1.70;;;;;;;-4.80;76.67;98838.52;112846;242;38486;-70
2024/01/16 04:17:04;;;;;;;2.70;1.20;;;;;;;-4.87;76.89;98840.20;112883;242;38686;-70
2024/01/16 04:19:39;;;;;;;2.20;1.20;;;;;;;-4.92;77.47;98841.05;112875;242;39612;-70
2024/01/16 04:22:12;;;;;;;0.90;0.70;;;;;;;-4.94;77.31;98849.73;112860;242;38523;-70
2024/01/16 04:24:47;;;;;;;1.50;1.20;;;;;;;-4.94;77.21;98856.19;112850;242;38249;-70
2024/01/16 04:27:23;;;;;;;1.40;1.10;;;;;;;-4.94;77.22;98856.70;112888;242;38448;-69
2024/01/16 04:29:57;;;;;;;2.70;1.40;;;;;;;-4.94;77.10;98864.52;112919;242;39465;-70
2024/01/16 04:32:30;;;;;;;4.10;1.50;;;;;;;-4.96;77.31;98870.14;112834;242;39539;-69
2024/01/16 04:35:05;;;;;;;3.60;1.50;;;;;;;-4.99;77.35;98870.30;112876;242;39390;-68
2024/01/16 04:37:38;;;;;;;4.40;1.60;;;;;;;-5.03;77.36;98869.64;112868;242;38868;-69
2024/01/16 04:40:13;;;;;;;2.80;1.50;;;;;;;-5.08;77.11;98872.01;112843;242;38354;-70
2024/01/16 04:42:49;;;;;;;5.00;2.10;;;;;;;-5.16;77.20;98877.61;112852;242;38238;-70
2024/01/16 04:45:24;;;;;;;9.00;4.20;;;;;;;-5.23;77.28;98884.24;112831;242;38549;-70
2024/01/16 04:47:59;;;;;;;9.80;4.50;;;;;;;-5.30;77.32;98887.78;112774;242;39346;-70
2024/01/16 04:50:34;;;;;;;15.40;6.70;;;;;;;-5.36;77.49;98894.58;112861;242;38316;-70
2024/01/16 04:53:08;;;;;;;20.10;7.90;;;;;;;-5.38;77.05;98895.92;112874;242;40750;-69
2024/01/16 04:55:42;;;;;;;11.80;4.80;;;;;;;-5.38;76.88;98908.84;112882;242;38347;-70
2024/01/16 04:58:16;;;;;;;4.70;2.10;;;;;;;-5.41;77.02;98908.16;112885;242;38270;-70
2024/01/16 05:00:50;;;;;;;4.50;1.60;;;;;;;-5.43;77.06;98912.73;112732;242;175544;-70
2024/01/16 05:03:27;;;;;;;3.80;1.70;;;;;;;-5.47;76.89;98914.77;112851;242;38245;-71
2024/01/16 05:06:01;;;;;;;6.70;2.50;;;;;;;-5.51;76.99;98919.86;112457;242;506981;-69
2024/01/16 05:08:40;;;;;;;5.70;2.10;;;;;;;-5.56;77.42;98921.89;112886;242;38521;-69
2024/01/16 05:11:17;;;;;;;4.10;1.70;;;;;;;-5.58;77.47;98928.66;112860;242;38770;-70
2024/01/16 05:13:56;;;;;;;5.60;2.10;;;;;;;-5.62;77.49;98933.59;112899;242;39218;-69
2024/01/16 05:16:30;;;;;;;7.60;2.70;;;;;;;-5.66;77.44;98928.81;112870;242;38411;-69
2024/01/16 05:19:04;;;;;;;10.20;3.70;;;;;;;-5.67;77.71;98930.14;112892;242;38594;-70
2024/01/16 05:21:38;;;;;;;10.00;2.60;;;;;;;-5.66;77.83;98933.91;112868;242;39011;-70
2024/01/16 05:24:12;;;;;;;5.80;2.10;;;;;;;-5.57;77.95;98949.55;112878;242;39467;-70
2024/01/16 05:26:46;;;;;;;4.90;1.80;;;;;;;-5.52;78.21;98955.02;112833;242;38786;-70
2024/01/16 05:29:20;;;;;;;4.80;1.40;;;;;;;-5.46;77.99;98954.55;112894;242;38524;-69
2024/01/16 05:31:54;;;;;;;4.20;1.90;;;;;;;-5.44;78.10;98963.04;112857;242;38331;-69
2024/01/16 05:34:29;;;;;;;4.60;1.80;;;;;;;-5.40;78.38;98965.77;112850;242;38750;-70
2024/01/16 05:37:03;;;;;;;6.40;1.70;;;;;;;-5.38;78.23;98967.13;112857;242;39341;-70
2024/01/16 05:39:37;;;;;;;5.20;2.00;;;;;;;-5.39;78.07;98976.65;112901;242;38535;-69
2024/01/16 05:42:12;;;;;;;3.60;1.70;;;;;;;-5.42;78.23;98979.19;112866;242;39720;-69
2024/01/16 05:44:46;;;;;;;2.10;1.20;;;;;;;-5.42;78.48;98987.17;112865;242;38322;-70
2024/01/16 05:47:20;;;;;;;3.40;1.60;;;;;;;-5.40;78.22;98986.69;112874;242;38304;-70
2024/01/16 05:49:54;;;;;;;5.20;2.10;;;;;;;-5.38;78.21;98994.83;112852;242;39359;-68
2024/01/16 05:52:28;;;;;;;9.80;3.60;;;;;;;-5.33;78.19;98995.20;112902;242;39709;-70
2024/01/16 05:55:02;;;;;;;9.80;3.10;;;;;;;-5.29;78.10;98995.20;112878;242;38325;-70
2024/01/16 05:57:37;;;;;;;17.90;6.20;;;;;;;-5.26;78.08;98999.48;112862;242;39830;-70
2024/01/16 06:00:22;;;;;;;22.40;6.70;;;;;;;-5.23;78.18;99002.38;112829;242;39488;-69
2024/01/16 06:03:06;;;;;;;15.70;5.30;;;;;;;-5.23;77.82;99005.95;112759;242;39062;-69
2024/01/16 06:05:41;;;;;;;13.30;4.50;;;;;;;-5.24;77.56;99018.68;112891;242;38726;-69
2024/01/16 06:08:15;;;;;;;10.20;4.00;;;;;;;-5.28;77.71;99023.59;112864;242;38383;-71
2024/01/16 06:10:50;;;;;;;12.70;4.70;;;;;;;-5.28;77.96;99028.02;112836;242;39456;-71
2024/01/16 06:13:24;;;;;;;9.60;3.70;;;;;;;-5.29;77.92;99031.24;112843;242;38422;-69
2024/01/16 06:15:58;;;;;;;5.40;2.30;;;;;;;-5.24;77.96;99036.53;112872;242;38985;-69
2024/01/16 06:18:32;;;;;;;5.60;2.20;;;;;;;-5.16;78.22;99042.52;112859;242;39747;-69
2024/01/16 06:21:08;;;;;;;7.40;3.00;;;;;;;-5.06;77.89;99046.97;112868;242;38007;-69
2024/01/16 06:23:43;;;;;;;6.60;3.00;;;;;;;-5.03;77.50;99056.69;112892;242;39105;-69
2024/01/16 06:26:19;;;;;;;7.40;4.00;;;;;;;-4.99;77.58;99059.06;112893;242;38391;-70
2024/01/16 06:28:53;;;;;;;7.90;3.60;;;;;;;-4.95;77.68;99074.90;112862;242;39987;-69
2024/01/16 06:31:30;;;;;;;7.10;2.80;;;;;;;-4.91;77.84;99083.08;112809;242;38322;-69
2024/01/16 06:34:04;;;;;;;4.30;1.90;;;;;;;-4.88;77.94;99085.12;112861;242;39295;-70
2024/01/16 06:36:38;;;;;;;6.50;2.00;;;;;;;-4.88;77.42;99086.48;112165;242;917978;-70
2024/01/16 06:39:13;;;;;;;7.70;2.40;;;;;;;-4.92;76.89;99095.15;112847;242;39280;-69
2024/01/16 06:41:47;;;;;;;5.30;2.00;;;;;;;-4.97;76.68;99099.04;112855;242;38314;-70
2024/01/16 06:44:21;;;;;;;5.50;1.90;;;;;;;-5.01;76.68;99099.36;112759;242;189999;-71
2024/01/16 06:46:55;;;;;;;3.70;1.50;;;;;;;-5.03;76.26;99099.02;112837;242;38247;-71
2024/01/16 06:49:29;;;;;;;2.50;1.50;;;;;;;-5.02;76.48;99099.54;112764;242;175542;-69
2024/01/16 06:52:02;;;;;;;6.70;2.30;;;;;;;-4.98;76.57;99103.80;112849;242;38546;-69
2024/01/16 06:54:36;;;;;;;6.40;3.00;;;;;;;-4.95;76.44;99105.34;112849;242;38746;-71
2024/01/16 06:57:10;;;;;;;9.10;3.00;;;;;;;-4.94;76.76;99108.23;112885;242;38361;-71
2024/01/16 06:59:44;;;;;;;5.60;2.60;;;;;;;-4.92;76.48;99110.96;112848;242;39153;-69
2024/01/16 07:02:18;;;;;;;7.20;2.80;;;;;;;-4.93;76.57;99117.75;112848;242;39292;-70
2024/01/16 07:04:53;;;;;;;8.90;2.60;;;;;;;-4.95;76.34;99128.47;112851;242;38393;-70
2024/01/16 07:07:27;;;;;;;8.20;3.40;;;;;;;-4.99;76.40;99131.67;112863;242;38473;-71
2024/01/16 07:10:01;;;;;;;8.00;2.10;;;;;;;-5.01;76.65;99137.45;112889;242;38913;-72
2024/01/16 07:12:35;;;;;;;8.50;2.50;;;;;;;-5.04;76.26;99141.02;112837;242;39153;-71
2024/01/16 07:15:11;;;;;;;5.90;2.00;;;;;;;-5.10;76.12;99145.41;112870;242;38112;-72
2024/01/16 07:17:46;;;;;;;7.90;2.90;;;;;;;-5.14;75.72;99146.06;112867;242;40198;-71
2024/01/16 07:20:20;;;;;;;4.20;2.00;;;;;;;-5.13;76.07;99149.45;112862;242;38299;-72
2024/01/16 07:22:53;;;;;;;5.50;2.10;;;;;;;-5.11;75.27;99157.81;112881;242;38246;-69
2024/01/16 07:25:30;;;;;;;4.90;2.20;;;;;;;-5.11;75.63;99160.37;112862;242;38817;-69
2024/01/16 07:28:07;;;;;;;4.50;2.80;;;;;;;-5.09;75.87;99168.35;112853;242;38317;-71
2024/01/16 07:30:41;;;;;;;5.20;2.20;;;;;;;-5.08;75.51;99183.48;112866;242;39562;-71
2024/01/16 07:33:23;;;;;;;4.50;2.30;;;;;;;-5.11;75.51;99195.39;112885;242;38889;-69
2024/01/16 07:36:07;;;;;;;6.10;2.30;;;;;;;-5.13;75.06;99197.40;112897;238;38314;-70
2024/01/16 07:38:44;;;;;;;5.60;2.60;;;;;;;-5.07;75.64;99198.30;112869;241;40699;-70
2024/01/16 07:41:19;;;;;;;7.00;3.30;;;;;;;-4.87;76.22;99208.11;112867;241;38260;-70
2024/01/16 07:43:55;;;;;;;5.60;2.90;;;;;;;-4.54;77.02;99209.61;112747;241;175488;-67
2024/01/16 07:46:29;;;;;;;6.40;3.20;;;;;;;-3.77;77.47;99213.73;112882;241;39914;-70
2024/01/16 07:49:03;;;;;;;9.10;4.30;;;;;;;-3.05;77.74;99211.65;112914;241;38291;-69
2024/01/16 07:51:37;;;;;;;12.20;5.70;;;;;;;-2.51;75.67;99215.59;112882;241;38419;-68
2024/01/16 07:54:13;;;;;;;8.60;4.80;;;;;;;-1.97;74.68;99222.16;112853;241;39164;-68
2024/01/16 07:56:47;;;;;;;8.90;4.90;;;;;;;-1.56;73.28;99226.00;112794;241;172726;-69
2024/01/16 07:59:20;;;;;;;5.40;3.00;;;;;;;-1.38;70.44;99225.02;112877;241;38251;-69
2024/01/16 08:01:54;;;;;;;5.60;2.40;;;;;;;-1.53;69.76;99227.16;112891;241;39619;-68
2024/01/16 08:04:28;;;;;;;4.50;2.40;;;;;;;-1.73;68.94;99229.38;112909;241;38414;-68
2024/01/16 08:07:02;;;;;;;6.20;2.30;;;;;;;-1.98;67.59;99232.59;112863;241;38252;-69
2024/01/16 08:09:36;;;;;;;3.20;1.90;;;;;;;-2.22;67.49;99239.21;112876;241;39471;-69
2024/01/16 08:12:14;;;;;;;5.00;2.50;;;;;;;-2.43;67.52;99240.33;112870;241;38249;-70
2024/01/16 08:14:48;;;;;;;5.10;2.20;;;;;;;-2.59;67.99;99244.66;112861;241;38245;-70
2024/01/16 08:17:21;;;;;;;3.90;2.00;;;;;;;-2.71;67.76;99245.20;112854;241;38265;-68
2024/01/16 08:19:56;;;;;;;6.80;2.90;;;;;;;-2.90;67.54;99252.92;112872;240;38288;-68
2024/01/16 08:22:30;;;;;;;5.00;2.20;;;;;;;-3.05;67.72;99259.77;112886;241;38245;-69
2024/01/16 08:25:05;;;;;;;5.00;2.50;;;;;;;-3.19;67.45;99257.73;112890;241;39552;-69
2024/01/16 08:27:39;;;;;;;6.10;2.90;;;;;;;-3.28;68.59;99264.04;112874;241;39065;-68
2024/01/16 08:30:16;;;;;;;7.10;3.00;;;;;;;-3.35;68.56;99263.19;112850;241;38268;-68
2024/01/16 08:32:51;;;;;;;5.60;2.50;;;;;;;-3.41;68.67;99270.35;112901;241;40364;-69
2024/01/16 08:35:28;;;;;;;6.10;2.80;;;;;;;-3.47;68.56;99273.58;112915;241;38599;-69
2024/01/16 08:38:02;;;;;;;6.00;2.90;;;;;;;-3.52;68.87;99276.48;112893;241;38382;-68
2024/01/16 08:40:36;;;;;;;9.40;4.00;;;;;;;-3.52;69.33;99282.45;112900;241;38295;-68
2024/01/16 08:43:10;;;;;;;7.20;3.30;;;;;;;-3.50;69.18;99285.84;112908;241;39432;-67
2024/01/16 08:45:44;;;;;;;5.70;2.80;;;;;;;-3.45;69.67;99289.77;112889;241;38569;-68
2024/01/16 08:48:17;;;;;;;5.60;2.40;;;;;;;-3.44;68.96;99292.00;112898;241;38427;-69
2024/01/16 08:50:51;;;;;;;5.50;2.40;;;;;;;-3.43;69.34;99296.95;112892;241;38628;-68
2024/01/16 08:53:25;;;;;;;4.30;2.30;;;;;;;-3.37;69.34;99303.42;112866;241;38310;-68
2024/01/16 08:55:59;;;;;;;3.70;2.00;;;;;;;-3.31;68.82;99312.98;112881;241;38679;-69
2024/01/16 08:58:35;;;;;;;5.70;2.50;;;;;;;-3.26;68.72;99316.05;112857;241;39726;-69
2024/01/16 09:01:10;;;;;;;4.10;1.70;;;;;;;-3.27;68.31;99317.92;112901;241;39846;-68
2024/01/16 09:03:44;;;;;;;5.00;1.80;;;;;;;-3.25;67.58;99325.95;112881;241;38539;-68
2024/01/16 09:06:18;;;;;;;6.90;2.10;;;;;;;-3.28;68.17;99325.95;112888;241;38330;-68
2024/01/16 09:08:52;;;;;;;2.70;1.70;;;;;;;-3.28;67.94;99324.24;112888;241;38277;-68
2024/01/16 09:11:26;;;;;;;4.20;2.00;;;;;;;-3.32;67.76;99328.33;112864;241;38259;-68
2024/01/16 09:14:00;;;;;;;3.60;2.00;;;;;;;-3.28;68.78;99331.06;112832;241;38641;-69
2024/01/16 09:16:34;;;;;;;4.10;1.70;;;;;;;-3.15;68.85;99333.30;112832;241;38481;-69
2024/01/16 09:19:09;;;;;;;1.70;0.90;;;;;;;-2.90;68.73;99335.85;112894;241;38331;-69
2024/01/16 09:21:43;;;;;;;4.20;1.20;;;;;;;-2.63;67.47;99332.41;112902;241;38267;-69
2024/01/16 09:24:16;;;;;;;3.70;1.20;;;;;;;-2.40;67.19;99326.22;112883;241;38306;-69
2024/01/16 09:26:50;;;;;;;1.70;1.10;;;;;;;-2.09;67.13;99328.34;112796;241;175113;-69
2024/01/16 09:29:24;;;;;;;2.60;1.50;;;;;;;-1.85;66.44;99328.07;112890;241;38255;-69
2024/01/16 09:31:58;;;;;;;3.60;1.90;;;;;;;-1.64;66.21;99327.80;112884;241;39014;-69
2024/01/16 09:34:31;;;;;;;3.40;1.40;;;;;;;-1.41;65.21;99325.60;112871;241;38432;-69
2024/01/16 09:37:05;;;;;;;2.50;1.80;;;;;;;-1.14;65.37;99327.64;112925;241;37876;-70
2024/01/16 09:39:39;;;;;;;3.00;1.60;;;;;;;-0.78;63.89;99330.78;112871;241;38339;-70
2024/01/16 09:42:13;;;;;;;2.60;1.40;;;;;;;-0.42;63.19;99334.02;112880;241;39847;-71
2024/01/16 09:44:47;;;;;;;2.60;1.10;;;;;;;-0.14;60.99;99333.04;112845;241;38263;-71
2024/01/16 09:47:20;;;;;;;2.60;1.20;;;;;;;0.22;60.69;99334.15;112891;241;38255;-69
2024/01/16 09:49:55;;;;;;;3.80;1.80;;;;;;;0.56;59.69;99340.91;112867;241;38551;-69
2024/01/16 09:52:28;;;;;;;3.90;2.10;;;;;;;0.86;58.45;99346.13;112831;241;38573;-71
2024/01/16 09:55:02;;;;;;;3.90;2.30;;;;;;;1.10;59.00;99354.17;112877;241;39989;-71
2024/01/16 09:57:35;;;;;;;4.80;2.40;;;;;;;1.39;58.03;99355.40;112889;241;38327;-70
2024/01/16 10:00:12;;;;;;;2.50;1.30;;;;;;;1.66;57.88;99358.70;112866;241;38413;-71
2024/01/16 10:02:47;;;;;;;2.20;1.30;;;;;;;1.97;57.72;99357.11;112853;241;38410;-69
2024/01/16 10:05:21;;;;;;;2.80;1.20;;;;;;;2.22;56.44;99358.84;112889;241;38206;-69
2024/01/16 10:07:54;;;;;;;2.40;1.50;;;;;;;2.48;56.44;99356.23;112831;241;38325;-69
2024/01/16 10:10:29;;;;;;;2.80;1.70;;;;;;;2.76;55.75;99357.16;112890;241;38705;-70
2024/01/16 10:13:02;;;;;;;3.10;1.50;;;;;;;3.00;54.68;99364.89;112738;241;174607;-70
2024/01/16 10:15:36;;;;;;;2.00;1.50;;;;;;;3.21;54.76;99371.27;112866;241;38466;-72
2024/01/16 10:18:20;;;;;;;2.30;1.30;;;;;;;3.48;52.92;99370.98;112860;241;39119;-72
2024/01/16 10:20:54;;;;;;;3.00;1.70;;;;;;;3.58;52.63;99375.88;112874;241;38586;-69
2024/01/16 10:23:28;;;;;;;4.80;1.80;;;;;;;3.76;52.76;99379.04;112867;241;38313;-69
2024/01/16 10:26:12;;;;;;;4.30;1.80;;;;;;;4.04;51.73;99383.30;112844;241;39406;-70
2024/01/16 10:28:46;;;;;;;2.80;1.30;;;;;;;4.22;51.00;99382.29;112848;241;39832;-70
2024/01/16 10:31:20;;;;;;;2.90;1.80;;;;;;;4.28;50.60;99384.52;112919;241;39332;-69
2024/01/16 10:33:53;;;;;;;3.40;1.70;;;;;;;4.16;50.25;99389.17;112866;241;38193;-69
2024/01/16 10:36:27;;;;;;;4.40;2.00;;;;;;;3.96;49.65;99391.10;112879;241;38825;-71
2024/01/16 10:39:06;;;;;;;3.10;2.00;;;;;;;3.47;49.12;99396.84;112867;241;39178;-72
2024/01/16 10:41:40;;;;;;;3.70;2.00;;;;;;;3.06;49.74;99402.30;112865;241;38850;-69
2024/01/16 10:44:14;;;;;;;2.90;1.70;;;;;;;2.54;49.45;99407.23;112881;241;38662;-69
2024/01/16 10:46:48;;;;;;;2.00;1.50;;;;;;;2.12;50.04;99408.59;112877;241;38798;-70
2024/01/16 10:49:21;;;;;;;4.30;2.20;;;;;;;1.65;50.16;99413.91;112852;241;38707;-70
2024/01/16 10:51:55;;;;;;;3.50;1.90;;;;;;;1.14;51.30;99415.94;112866;241;38664;-68
2024/01/16 10:54:29;;;;;;;2.70;1.60;;;;;;;0.74;51.68;99417.20;112871;241;38917;-68
2024/01/16 10:57:03;;;;;;;2.50;1.40;;;;;;;0.40;52.73;99414.39;112880;241;38845;-69
2024/01/16 10:59:41;;;;;;;3.60;2.00;;;;;;;0.16;53.50;99416.38;112904;241;38311;-69
2024/01/16 11:02:14;;;;;;;7.20;2.70;;;;;;;-0.08;53.91;99408.39;112863;241;38600;-69
2024/01/16 11:04:49;;;;;;;2.80;1.40;;;;;;;-0.24;54.39;99411.64;112875;241;38516;-70
2024/01/16 11:07:24;;;;;;;1.80;1.10;;;;;;;-0.46;54.65;99417.67;112874;241;38576;-70
2024/01/16 11:09:57;;;;;;;1.80;1.10;;;;;;;-0.66;54.68;99423.14;112875;241;38661;-69
2024/01/16 11:12:31;;;;;;;2.50;1.20;;;;;;;-0.89;54.14;99429.14;112747;241;172499;-71
2024/01/16 11:15:07;;;;;;;3.30;1.60;;;;;;;-1.16;55.29;99429.48;112876;241;39795;-71
2024/01/16 11:17:41;;;;;;;3.40;2.10;;;;;;;-1.29;55.73;99429.73;112877;241;39466;-69
2024/01/16 11:20:16;;;;;;;4.00;2.00;;;;;;;-1.40;55.93;99434.57;112852;241;38541;-69
2024/01/16 11:22:50;;;;;;;4.00;2.00;;;;;;;-1.53;55.82;99441.81;112872;241;38412;-70
2024/01/16 11:25:25;;;;;;;5.20;2.00;;;;;;;-1.69;56.44;99442.89;112871;241;38230;-68
2024/01/16 11:28:00;;;;;;;3.00;1.30;;;;;;;-1.81;56.46;99441.23;112805;241;38570;-70
2024/01/16 11:30:35;;;;;;;3.20;1.00;;;;;;;-1.94;56.92;99443.48;112876;241;38580;-70
2024/01/16 11:33:09;;;;;;;2.90;1.50;;;;;;;-2.03;57.30;99441.97;112882;241;38433;-71
2024/01/16 11:35:44;;;;;;;3.30;1.60;;;;;;;-2.11;57.08;99446.42;112860;241;39048;-69
2024/01/16 11:38:21;;;;;;;3.70;1.60;;;;;;;-2.21;56.98;99446.44;112895;241;39069;-68
2024/01/16 11:40:55;;;;;;;2.70;1.60;;;;;;;-2.30;57.40;99447.65;112850;241;39944;-70
2024/01/16 11:43:41;;;;;;;3.20;1.70;;;;;;;-2.40;57.42;99453.80;112873;241;38819;-70
2024/01/16 11:46:15;;;;;;;5.10;2.30;;;;;;;-2.48;58.21;99451.25;112882;241;39481;-69
2024/01/16 11:48:51;;;;;;;3.20;1.80;;;;;;;-2.49;58.41;99451.92;112866;241;38539;-69
2024/01/16 11:51:28;;;;;;;3.50;1.60;;;;;;;-2.49;58.39;99453.29;112835;241;38249;-68
2024/01/16 11:54:02;;;;;;;3.20;1.70;;;;;;;-2.49;58.99;99457.39;112875;241;38510;-68
2024/01/16 11:57:07;;;;;;;4.50;2.70;;;;;;;-2.42;59.05;99466.61;112883;241;38845;-70
2024/01/16 12:00:12;;;;;;;3.60;2.10;;;;;;;-2.34;59.00;99471.90;112893;241;38518;-70
2024/01/16 12:02:57;;;;;;;1.80;1.40;;;;;;;-2.27;58.86;99476.17;112867;241;38888;-69
2024/01/16 12:05:30;;;;;;;3.50;1.40;;;;;;;-2.19;59.29;99476.16;112851;241;38788;-69
2024/01/16 12:08:06;;;;;;;2.00;1.20;;;;;;;-2.13;59.07;99471.02;112853;241;39503;-70
2024/01/16 12:10:48;;;;;;;3.70;1.80;;;;;;;-2.09;59.31;99475.13;112897;241;38359;-69